Time;durP1;ratioP1;P1;durP2;ratioP2;P2;SDS_P1;SDS_P2;PMS_P1;PMS_P2;Temp;Humidity;BMP_temperature;BMP_pressure;BME280_temperature;BME280_humidity;BME280_pressure;Samples;Min_cycle;Max_cycle;Signal;HPM_P1;HPM_P2
2023/10/24 00:00:54;;;;;;;4.90;1.60;;;;;;;;;;5093697;28;20063;-59
2023/10/24 00:03:23;;;;;;;4.65;1.50;;;;;;;;;;5094166;28;20048;-58
2023/10/24 00:05:51;;;;;;;3.92;1.80;;;;;;;;;;5092957;28;20052;-58
2023/10/24 00:08:18;;;;;;;4.28;1.67;;;;;;;;;;5093286;28;20114;-59
2023/10/24 00:10:44;;;;;;;3.50;1.60;;;;;;;;;;5093414;28;20066;-59
2023/10/24 00:13:11;;;;;;;5.03;1.50;;;;;;;;;;5093849;28;20055;-58
2023/10/24 00:15:38;;;;;;;7.65;1.98;;;;;;;;;;5093170;28;20054;-59
2023/10/24 00:18:05;;;;;;;3.20;1.30;;;;;;;;;;5094399;28;20063;-58
2023/10/24 00:20:33;;;;;;;3.72;1.83;;;;;;;;;;5093311;28;20390;-58
2023/10/24 00:23:01;;;;;;;5.13;2.00;;;;;;;;;;5092917;28;20052;-58
2023/10/24 00:25:28;;;;;;;4.40;1.63;;;;;;;;;;5093328;28;20056;-58
2023/10/24 00:27:54;;;;;;;6.75;1.92;;;;;;;;;;5092850;28;20056;-58
2023/10/24 00:30:21;;;;;;;4.20;1.60;;;;;;;;;;5110059;28;20067;-59
2023/10/24 00:32:49;;;;;;;4.82;1.73;;;;;;;;;;5114079;27;20047;-58
2023/10/24 00:35:16;;;;;;;5.80;2.13;;;;;;;;;;5113514;28;20439;-59
2023/10/24 00:37:43;;;;;;;5.45;2.15;;;;;;;;;;5113365;28;20056;-59
2023/10/24 00:40:12;;;;;;;4.95;1.70;;;;;;;;;;5113136;28;20048;-59
2023/10/24 00:42:39;;;;;;;3.88;1.92;;;;;;;;;;5113135;28;20051;-58
2023/10/24 00:45:06;;;;;;;3.08;1.85;;;;;;;;;;5112763;28;20052;-59
2023/10/24 00:47:34;;;;;;;3.78;1.58;;;;;;;;;;5092975;28;20063;-58
2023/10/24 00:50:01;;;;;;;5.95;2.25;;;;;;;;;;5092822;28;20400;-58
2023/10/24 00:52:28;;;;;;;4.50;1.75;;;;;;;;;;5093196;28;20052;-58
2023/10/24 00:54:54;;;;;;;5.82;2.00;;;;;;;;;;5092884;28;20056;-59
2023/10/24 00:57:23;;;;;;;3.83;1.80;;;;;;;;;;5093006;28;20063;-58
2023/10/24 00:59:51;;;;;;;4.47;2.00;;;;;;;;;;5092937;28;20404;-59
2023/10/24 01:02:18;;;;;;;5.07;1.90;;;;;;;;;;5093520;28;20052;-58
2023/10/24 01:04:45;;;;;;;3.78;2.00;;;;;;;;;;5092630;28;20059;-59
2023/10/24 01:07:12;;;;;;;5.10;1.95;;;;;;;;;;5092894;28;20059;-58
2023/10/24 01:09:38;;;;;;;4.60;1.90;;;;;;;;;;5092630;28;20051;-58
2023/10/24 01:12:06;;;;;;;3.30;2.00;;;;;;;;;;5092604;28;20473;-58
2023/10/24 01:14:34;;;;;;;2.90;1.60;;;;;;;;;;5092802;28;20520;-58
2023/10/24 01:17:09;;;;;;;3.92;2.03;;;;;;;;;;5093479;28;20056;-58
2023/10/24 01:19:36;;;;;;;3.55;2.00;;;;;;;;;;5096559;28;20056;-58
2023/10/24 01:22:04;;;;;;;4.28;1.85;;;;;;;;;;5096396;28;20048;-58
2023/10/24 01:24:31;;;;;;;4.47;2.00;;;;;;;;;;5096809;28;20055;-58
2023/10/24 01:26:58;;;;;;;4.95;1.90;;;;;;;;;;5096852;28;20055;-58
2023/10/24 01:29:25;;;;;;;3.80;1.98;;;;;;;;;;5105272;28;20051;-58
2023/10/24 01:31:51;;;;;;;4.03;1.85;;;;;;;;;;5096844;28;20052;-58
2023/10/24 01:34:18;;;;;;;4.57;2.00;;;;;;;;;;5096276;28;20501;-58
2023/10/24 01:36:45;;;;;;;3.75;2.15;;;;;;;;;;5096357;28;20054;-58
2023/10/24 01:39:13;;;;;;;4.03;2.00;;;;;;;;;;5096422;28;20056;-58
2023/10/24 01:41:42;;;;;;;4.60;1.88;;;;;;;;;;5096333;28;20048;-59
2023/10/24 01:44:09;;;;;;;3.10;1.58;;;;;;;;;;5096330;28;20051;-59
2023/10/24 01:46:36;;;;;;;3.40;1.70;;;;;;;;;;5097541;28;20082;-59
2023/10/24 01:49:02;;;;;;;3.90;1.83;;;;;;;;;;5095896;28;20059;-58
2023/10/24 01:51:29;;;;;;;4.35;1.88;;;;;;;;;;5097586;28;20055;-58
2023/10/24 01:53:56;;;;;;;2.20;1.60;;;;;;;;;;5096253;28;20374;-59
2023/10/24 01:56:24;;;;;;;3.97;1.70;;;;;;;;;;5096103;28;20078;-58
2023/10/24 01:58:51;;;;;;;3.38;2.00;;;;;;;;;;5095960;28;20052;-58
2023/10/24 02:01:18;;;;;;;4.10;1.95;;;;;;;;;;5107235;28;20063;-58
2023/10/24 02:03:45;;;;;;;4.53;1.90;;;;;;;;;;5116021;28;20044;-59
2023/10/24 02:06:11;;;;;;;3.47;1.80;;;;;;;;;;5116264;28;20047;-58
2023/10/24 02:08:38;;;;;;;3.28;2.00;;;;;;;;;;5115781;28;20055;-58
2023/10/24 02:11:05;;;;;;;4.57;2.00;;;;;;;;;;5115963;28;20052;-58
2023/10/24 02:13:33;;;;;;;3.08;1.80;;;;;;;;;;5115737;28;20055;-59
2023/10/24 02:16:00;;;;;;;5.63;2.00;;;;;;;;;;5112554;28;20392;-59
2023/10/24 02:18:26;;;;;;;5.00;1.83;;;;;;;;;;5115403;27;20078;-58
2023/10/24 02:20:53;;;;;;;3.08;1.95;;;;;;;;;;5115831;28;20130;-58
2023/10/24 02:23:20;;;;;;;5.68;2.35;;;;;;;;;;5115385;28;20055;-58
2023/10/24 02:25:47;;;;;;;5.60;2.20;;;;;;;;;;5115914;28;20070;-58
2023/10/24 02:28:14;;;;;;;3.08;2.00;;;;;;;;;;5115723;28;20056;-58
2023/10/24 02:30:42;;;;;;;4.45;2.10;;;;;;;;;;5107792;28;20059;-58
2023/10/24 02:33:08;;;;;;;4.72;2.08;;;;;;;;;;5095521;28;20048;-58
2023/10/24 02:35:35;;;;;;;4.97;2.22;;;;;;;;;;5095620;28;20059;-58
2023/10/24 02:38:02;;;;;;;4.20;1.77;;;;;;;;;;5095499;28;20048;-58
2023/10/24 02:40:29;;;;;;;4.38;1.90;;;;;;;;;;5095100;28;20063;-58
2023/10/24 02:42:56;;;;;;;2.75;1.75;;;;;;;;;;5095284;28;20056;-58
2023/10/24 02:45:23;;;;;;;3.13;1.80;;;;;;;;;;5096204;27;20520;-58
2023/10/24 02:47:51;;;;;;;3.72;1.98;;;;;;;;;;5094704;28;20062;-58
2023/10/24 02:50:18;;;;;;;3.72;2.00;;;;;;;;;;5095061;28;20063;-58
2023/10/24 02:52:45;;;;;;;3.17;1.65;;;;;;;;;;5095254;28;20056;-58
2023/10/24 02:55:15;;;;;;;4.38;2.28;;;;;;;;;;5095020;28;20048;-58
2023/10/24 02:57:41;;;;;;;;;;;;;;;;;;5095736;28;20055;-59
2023/10/24 03:00:09;;;;;;;4.47;2.10;;;;;;;;;;5096497;28;20308;-58
2023/10/24 03:02:36;;;;;;;4.47;1.92;;;;;;;;;;5095300;28;20059;-59
2023/10/24 03:05:05;;;;;;;5.28;1.90;;;;;;;;;;5094627;28;20063;-58
2023/10/24 03:07:31;;;;;;;7.00;2.20;;;;;;;;;;5095157;28;20056;-58
2023/10/24 03:09:58;;;;;;;5.03;2.10;;;;;;;;;;5094919;28;20056;-58
2023/10/24 03:12:25;;;;;;;3.47;1.95;;;;;;;;;;5094878;28;20405;-59
2023/10/24 03:14:52;;;;;;;2.25;1.38;;;;;;;;;;5095935;27;20044;-59
2023/10/24 03:17:19;;;;;;;3.63;1.70;;;;;;;;;;5094610;28;20063;-59
2023/10/24 03:19:45;;;;;;;3.28;1.50;;;;;;;;;;5095014;28;20055;-58
2023/10/24 03:22:14;;;;;;;3.03;1.42;;;;;;;;;;5102845;28;20058;-58
2023/10/24 03:24:41;;;;;;;2.78;1.52;;;;;;;;;;5114519;28;20059;-59
2023/10/24 03:27:12;;;;;;;3.97;1.85;;;;;;;;;;5114980;28;20059;-59
2023/10/24 03:29:40;;;;;;;2.00;1.20;;;;;;;;;;5108618;28;20052;-58
2023/10/24 03:32:07;;;;;;;3.10;1.50;;;;;;;;;;5094415;28;20055;-61
2023/10/24 03:34:34;;;;;;;3.17;1.55;;;;;;;;;;5093970;28;20413;-58
2023/10/24 03:37:02;;;;;;;3.10;1.50;;;;;;;;;;5094398;28;20402;-58
2023/10/24 03:39:30;;;;;;;3.67;1.83;;;;;;;;;;5093905;28;20515;-58
2023/10/24 03:41:57;;;;;;;2.78;1.35;;;;;;;;;;5093890;28;20059;-59
2023/10/24 03:44:24;;;;;;;2.72;1.60;;;;;;;;;;5095092;27;20036;-58
2023/10/24 03:46:51;;;;;;;3.50;1.50;;;;;;;;;;5093961;28;20059;-58
2023/10/24 03:49:17;;;;;;;3.15;1.52;;;;;;;;;;5091717;28;20055;-59
2023/10/24 03:51:46;;;;;;;3.40;1.40;;;;;;;;;;5094022;28;20052;-58
2023/10/24 03:54:13;;;;;;;3.85;1.50;;;;;;;;;;5093948;28;20073;-59
2023/10/24 03:56:41;;;;;;;2.88;1.50;;;;;;;;;;5094076;28;20063;-58
2023/10/24 03:59:08;;;;;;;3.22;1.95;;;;;;;;;;5095058;28;20059;-59
2023/10/24 04:01:35;;;;;;;3.33;1.73;;;;;;;;;;5093781;28;20059;-59
2023/10/24 04:04:02;;;;;;;2.78;1.70;;;;;;;;;;5093342;28;20048;-59
2023/10/24 04:06:29;;;;;;;2.40;1.30;;;;;;;;;;5093673;28;20496;-58
2023/10/24 04:09:00;;;;;;;3.13;1.60;;;;;;;;;;5093085;28;20056;-58
2023/10/24 04:11:27;;;;;;;3.25;1.45;;;;;;;;;;5093466;28;20052;-59
2023/10/24 04:13:55;;;;;;;2.75;1.20;;;;;;;;;;5094869;27;20473;-58
2023/10/24 04:16:21;;;;;;;2.13;1.25;;;;;;;;;;5093541;28;20071;-58
2023/10/24 04:18:48;;;;;;;3.33;1.30;;;;;;;;;;5111388;28;20055;-59
2023/10/24 04:21:15;;;;;;;3.97;1.40;;;;;;;;;;5113147;28;20052;-58
2023/10/24 04:23:42;;;;;;;3.00;1.30;;;;;;;;;;5113295;28;20066;-58
2023/10/24 04:26:09;;;;;;;2.30;1.20;;;;;;;;;;5113594;28;20059;-59
2023/10/24 04:28:38;;;;;;;3.70;1.50;;;;;;;;;;5107410;28;20421;-58
2023/10/24 04:31:06;;;;;;;1.88;1.10;;;;;;;;;;5103845;27;20047;-59
2023/10/24 04:33:33;;;;;;;2.78;1.20;;;;;;;;;;5122820;27;20047;-59
2023/10/24 04:36:00;;;;;;;3.88;1.40;;;;;;;;;;5133965;27;20047;-59
2023/10/24 04:38:27;;;;;;;1.55;1.08;;;;;;;;;;5129339;27;20438;-59
2023/10/24 04:40:54;;;;;;;2.72;1.00;;;;;;;;;;5100410;27;20050;-58
2023/10/24 04:43:20;;;;;;;2.67;1.10;;;;;;;;;;5108955;28;20060;-59
2023/10/24 04:45:47;;;;;;;1.95;1.33;;;;;;;;;;5100478;27;20050;-59
2023/10/24 04:48:15;;;;;;;3.67;1.30;;;;;;;;;;5133185;27;20052;-59
2023/10/24 04:50:42;;;;;;;2.40;1.00;;;;;;;;;;5133357;27;20055;-59
2023/10/24 04:53:09;;;;;;;1.50;1.00;;;;;;;;;;5132724;27;20190;-59
2023/10/24 04:55:36;;;;;;;1.98;1.00;;;;;;;;;;5119047;27;21142;-59
2023/10/24 04:58:03;;;;;;;1.55;0.90;;;;;;;;;;5092342;28;20074;-59
2023/10/24 05:00:30;;;;;;;2.00;1.00;;;;;;;;;;5103275;27;20052;-59
2023/10/24 05:02:57;;;;;;;2.80;1.40;;;;;;;;;;5109877;27;20059;-59
2023/10/24 05:05:27;;;;;;;2.33;1.00;;;;;;;;;;5109352;28;20063;-59
2023/10/24 05:07:54;;;;;;;1.65;0.93;;;;;;;;;;5112735;28;20062;-59
2023/10/24 05:10:21;;;;;;;1.50;0.90;;;;;;;;;;5099637;28;20052;-58
2023/10/24 05:12:47;;;;;;;3.33;1.30;;;;;;;;;;5129951;28;20515;-59
2023/10/24 05:15:14;;;;;;;2.22;0.90;;;;;;;;;;5097470;28;20043;-59
2023/10/24 05:17:41;;;;;;;1.17;0.73;;;;;;;;;;5107675;28;20052;-58
2023/10/24 05:20:09;;;;;;;2.47;0.80;;;;;;;;;;5104523;28;20047;-58
2023/10/24 05:22:38;;;;;;;1.50;0.80;;;;;;;;;;5111966;28;20055;-59
2023/10/24 05:25:05;;;;;;;2.40;1.13;;;;;;;;;;5111652;28;20512;-59
2023/10/24 05:27:32;;;;;;;2.75;1.20;;;;;;;;;;5112628;28;20504;-59
2023/10/24 05:29:59;;;;;;;1.13;0.73;;;;;;;;;;5125173;28;20054;-58
2023/10/24 05:32:26;;;;;;;1.90;0.93;;;;;;;;;;5117664;28;20058;-58
2023/10/24 05:34:52;;;;;;;2.85;1.10;;;;;;;;;;5111992;28;20044;-58
2023/10/24 05:37:19;;;;;;;2.42;0.73;;;;;;;;;;5110041;28;20074;-58
2023/10/24 05:39:47;;;;;;;2.35;0.70;;;;;;;;;;5093546;28;20070;-58
2023/10/24 05:42:14;;;;;;;2.78;1.17;;;;;;;;;;5105365;28;20052;-59
2023/10/24 05:44:41;;;;;;;2.50;1.00;;;;;;;;;;5105446;28;20051;-58
2023/10/24 05:47:08;;;;;;;3.17;0.90;;;;;;;;;;5111511;28;20052;-59
2023/10/24 05:49:35;;;;;;;1.38;0.77;;;;;;;;;;5109897;28;20055;-58
2023/10/24 05:52:02;;;;;;;1.75;0.90;;;;;;;;;;5107879;28;20408;-58
2023/10/24 05:54:29;;;;;;;1.70;0.80;;;;;;;;;;5099985;28;20056;-58
2023/10/24 05:56:57;;;;;;;1.50;1.00;;;;;;;;;;5098569;28;20059;-58
2023/10/24 05:59:26;;;;;;;1.15;0.80;;;;;;;;;;5102677;28;20408;-58
2023/10/24 06:01:53;;;;;;;2.47;1.00;;;;;;;;;;5114794;28;20392;-58
2023/10/24 06:04:19;;;;;;;4.18;0.98;;;;;;;;;;5104493;28;20052;-59
2023/10/24 06:06:47;;;;;;;1.77;0.80;;;;;;;;;;5107994;27;20047;-58
2023/10/24 06:09:14;;;;;;;1.77;0.80;;;;;;;;;;5108632;27;20055;-59
2023/10/24 06:11:41;;;;;;;1.90;0.80;;;;;;;;;;5111374;27;20047;-58
2023/10/24 06:14:09;;;;;;;4.95;1.45;;;;;;;;;;5106317;27;20142;-59
2023/10/24 06:16:36;;;;;;;1.65;0.90;;;;;;;;;;5105652;28;20048;-59
2023/10/24 06:19:03;;;;;;;1.15;0.73;;;;;;;;;;5105898;27;20059;-59
2023/10/24 06:21:30;;;;;;;1.33;0.90;;;;;;;;;;5101453;28;20077;-59
2023/10/24 06:23:57;;;;;;;2.88;0.88;;;;;;;;;;5115684;27;20048;-58
2023/10/24 06:26:27;;;;;;;2.67;0.80;;;;;;;;;;5112055;27;20048;-58
2023/10/24 06:29:00;;;;;;;1.67;0.90;;;;;;;;;;5113333;28;20047;-58
2023/10/24 06:31:43;;;;;;;2.20;1.10;;;;;;;;;;5115106;28;20074;-59
2023/10/24 06:34:11;;;;;;;1.35;0.90;;;;;;;;;;5115386;28;20058;-52
2023/10/24 06:36:42;;;;;;;3.20;1.10;;;;;;;;;;5114701;28;20400;-53
2023/10/24 06:39:12;;;;;;;1.83;0.90;;;;;;;;;;5115756;28;20058;-52
2023/10/24 06:41:40;;;;;;;3.20;1.25;;;;;;;;;;5115804;28;20054;-49
2023/10/24 06:44:08;;;;;;;2.28;0.85;;;;;;;;;;5115448;28;20055;-54
2023/10/24 06:46:48;;;;;;;1.60;0.98;;;;;;;;;;5115501;28;20491;-50
2023/10/24 06:49:21;;;;;;;1.77;0.82;;;;;;;;;;5094252;28;20052;-52
2023/10/24 06:51:50;;;;;;;2.08;1.20;;;;;;;;;;5094806;28;20063;-49
2023/10/24 06:54:19;;;;;;;2.10;1.10;;;;;;;;;;5094957;28;20504;-51
2023/10/24 06:56:56;;;;;;;2.25;1.02;;;;;;;;;;5095163;28;20059;-49
2023/10/24 06:59:25;;;;;;;1.52;1.00;;;;;;;;;;5095097;28;20055;-49
2023/10/24 07:01:59;;;;;;;1.80;0.95;;;;;;;;;;5095066;28;20056;-51
2023/10/24 07:04:30;;;;;;;1.75;0.85;;;;;;;;;;5094893;28;20517;-52
2023/10/24 07:07:00;;;;;;;2.38;1.20;;;;;;;;;;5095122;28;20059;-52
2023/10/24 07:09:28;;;;;;;2.00;1.17;;;;;;;;;;5094446;28;20067;-52
2023/10/24 07:11:57;;;;;;;1.98;1.00;;;;;;;;;;5095191;28;20063;-52
2023/10/24 07:14:28;;;;;;;2.72;1.00;;;;;;;;;;5094130;28;20059;-51
2023/10/24 07:16:56;;;;;;;2.25;1.20;;;;;;;;;;5093418;28;20161;-51
2023/10/24 07:19:23;;;;;;;1.77;1.05;;;;;;;;;;5094421;28;20056;-49
2023/10/24 07:21:49;;;;;;;1.45;1.05;;;;;;;;;;5094036;28;20051;-50
2023/10/24 07:24:16;;;;;;;2.47;0.93;;;;;;;;;;5094316;28;20052;-50
2023/10/24 07:26:43;;;;;;;3.20;1.00;;;;;;;;;;5093962;28;20055;-49
2023/10/24 07:29:10;;;;;;;1.52;1.15;;;;;;;;;;5093920;28;20424;-51
2023/10/24 07:31:36;;;;;;;3.05;1.10;;;;;;;;;;5094322;28;20143;-52
2023/10/24 07:34:05;;;;;;;2.30;1.13;;;;;;;;;;5092005;28;20052;-54
2023/10/24 07:36:32;;;;;;;1.80;0.98;;;;;;;;;;5094222;28;20055;-49
2023/10/24 07:39:00;;;;;;;2.15;1.15;;;;;;;;;;5093729;28;20063;-53
2023/10/24 07:41:26;;;;;;;1.90;1.00;;;;;;;;;;5094056;28;20408;-51
2023/10/24 07:43:53;;;;;;;2.72;0.82;;;;;;;;;;5093599;28;20059;-55
2023/10/24 07:46:20;;;;;;;1.50;0.80;;;;;;;;;;5093526;28;20052;-64
2023/10/24 07:48:49;;;;;;;2.50;0.80;;;;;;;;;;5112075;28;20055;-53
2023/10/24 07:51:17;;;;;;;1.75;0.80;;;;;;;;;;5114067;28;20054;-56
2023/10/24 07:53:45;;;;;;;2.40;0.80;;;;;;;;;;5114298;28;20051;-55
2023/10/24 07:56:11;;;;;;;1.73;0.80;;;;;;;;;;5113923;28;20059;-50
2023/10/24 07:58:38;;;;;;;2.25;0.90;;;;;;;;;;5113856;28;20047;-50
2023/10/24 08:01:05;;;;;;;1.63;0.73;;;;;;;;;;5113902;28;20058;-55
2023/10/24 08:03:32;;;;;;;1.98;0.80;;;;;;;;;;5113376;28;20051;-54
2023/10/24 08:05:59;;;;;;;3.45;0.90;;;;;;;;;;5113392;28;20476;-61
2023/10/24 08:08:28;;;;;;;1.55;0.80;;;;;;;;;;5113835;28;20471;-60
2023/10/24 08:10:54;;;;;;;1.80;1.00;;;;;;;;;;5113693;28;20056;-60
2023/10/24 08:13:21;;;;;;;1.55;0.90;;;;;;;;;;5113679;28;20062;-60
2023/10/24 08:15:51;;;;;;;3.38;0.80;;;;;;;;;;5113662;28;20044;-59
2023/10/24 08:18:18;;;;;;;1.67;0.85;;;;;;;;;;5113248;28;20047;-61
2023/10/24 08:20:45;;;;;;;1.98;0.90;;;;;;;;;;5113523;28;20063;-61
2023/10/24 08:23:12;;;;;;;1.98;0.90;;;;;;;;;;5113420;28;20060;-60
2023/10/24 08:25:40;;;;;;;2.60;0.80;;;;;;;;;;5113263;28;20480;-61
2023/10/24 08:28:07;;;;;;;1.40;0.80;;;;;;;;;;5112659;28;20051;-61
2023/10/24 08:30:36;;;;;;;2.15;0.90;;;;;;;;;;5113493;28;20484;-61
2023/10/24 08:33:03;;;;;;;1.45;0.95;;;;;;;;;;5113737;28;20056;-61
2023/10/24 08:35:30;;;;;;;1.35;0.70;;;;;;;;;;5113122;28;20063;-61
2023/10/24 08:37:57;;;;;;;1.88;0.70;;;;;;;;;;5113181;28;20055;-61
2023/10/24 08:40:23;;;;;;;2.10;0.70;;;;;;;;;;5113377;28;20476;-61
2023/10/24 08:42:52;;;;;;;2.03;1.02;;;;;;;;;;5113030;28;20074;-61
2023/10/24 08:45:19;;;;;;;2.70;1.08;;;;;;;;;;5112937;28;20062;-60
2023/10/24 08:47:47;;;;;;;1.13;0.85;;;;;;;;;;5112959;28;20063;-61
2023/10/24 08:50:14;;;;;;;3.95;0.80;;;;;;;;;;5113082;28;20074;-61
2023/10/24 08:52:41;;;;;;;1.42;0.80;;;;;;;;;;5113089;28;20404;-60
2023/10/24 08:55:08;;;;;;;1.63;0.82;;;;;;;;;;5113127;28;20055;-60
2023/10/24 08:57:35;;;;;;;1.67;0.98;;;;;;;;;;5112794;28;20413;-61
2023/10/24 09:00:03;;;;;;;3.53;0.90;;;;;;;;;;5112791;28;20059;-59
2023/10/24 09:02:30;;;;;;;3.92;0.90;;;;;;;;;;5113185;28;20400;-59
2023/10/24 09:04:58;;;;;;;1.48;0.80;;;;;;;;;;5112956;28;20055;-60
2023/10/24 09:07:24;;;;;;;1.40;0.90;;;;;;;;;;5112715;28;20058;-60
2023/10/24 09:09:51;;;;;;;1.77;0.93;;;;;;;;;;5112711;28;20047;-60
2023/10/24 09:12:18;;;;;;;1.88;0.90;;;;;;;;;;5112698;28;20051;-59
2023/10/24 09:14:46;;;;;;;2.33;0.95;;;;;;;;;;5112743;28;20052;-60
2023/10/24 09:17:16;;;;;;;1.80;0.88;;;;;;;;;;5112007;28;20043;-59
2023/10/24 09:19:43;;;;;;;1.70;1.10;;;;;;;;;;5112506;28;20389;-60
2023/10/24 09:22:10;;;;;;;1.45;0.80;;;;;;;;;;5112281;28;20408;-59
2023/10/24 09:24:37;;;;;;;2.22;0.82;;;;;;;;;;5112803;28;20058;-59
2023/10/24 09:27:04;;;;;;;1.40;0.73;;;;;;;;;;5112394;28;20054;-60
2023/10/24 09:29:32;;;;;;;2.97;0.85;;;;;;;;;;5112743;28;20071;-61
2023/10/24 09:31:59;;;;;;;1.52;0.90;;;;;;;;;;5098173;28;20052;-60
2023/10/24 09:34:27;;;;;;;1.50;0.85;;;;;;;;;;5091963;28;20059;-59
2023/10/24 09:37:05;;;;;;;1.45;0.90;;;;;;;;;;5092553;28;20056;-60
2023/10/24 09:39:32;;;;;;;2.38;0.90;;;;;;;;;;5094709;28;20063;-59
2023/10/24 09:41:59;;;;;;;2.15;0.82;;;;;;;;;;5096480;28;20067;-59
2023/10/24 09:44:25;;;;;;;1.35;0.65;;;;;;;;;;5096274;28;20070;-59
2023/10/24 09:46:53;;;;;;;1.60;0.90;;;;;;;;;;5096027;28;20052;-59
2023/10/24 09:49:20;;;;;;;1.50;0.90;;;;;;;;;;5096204;28;20048;-60
2023/10/24 09:51:49;;;;;;;1.90;0.70;;;;;;;;;;5096372;28;20052;-59
2023/10/24 09:54:16;;;;;;;2.42;0.90;;;;;;;;;;5096330;28;20059;-59
2023/10/24 09:56:43;;;;;;;2.38;0.98;;;;;;;;;;5095677;28;20055;-59
2023/10/24 09:59:10;;;;;;;2.20;0.85;;;;;;;;;;5096039;28;20052;-59
2023/10/24 10:01:37;;;;;;;2.38;0.95;;;;;;;;;;5095748;28;20051;-60
2023/10/24 10:04:05;;;;;;;2.33;0.77;;;;;;;;;;5095421;28;20056;-59
2023/10/24 10:06:34;;;;;;;3.45;1.20;;;;;;;;;;5095455;28;20055;-60
2023/10/24 10:09:03;;;;;;;1.50;0.80;;;;;;;;;;5095786;28;20059;-59
2023/10/24 10:11:31;;;;;;;1.30;0.80;;;;;;;;;;5095726;28;20373;-60
2023/10/24 10:14:04;;;;;;;1.67;0.95;;;;;;;;;;5095083;28;20052;-60
2023/10/24 10:16:38;;;;;;;2.58;1.10;;;;;;;;;;5095213;28;20044;-59
2023/10/24 10:19:21;;;;;;;2.20;1.00;;;;;;;;;;5095699;28;20412;-59
2023/10/24 10:21:55;;;;;;;1.73;0.90;;;;;;;;;;5095162;28;20052;-60
2023/10/24 10:24:31;;;;;;;2.95;0.80;;;;;;;;;;5095215;28;20378;-59
2023/10/24 10:27:04;;;;;;;2.17;0.90;;;;;;;;;;5094741;28;20048;-59
2023/10/24 10:29:37;;;;;;;2.20;0.98;;;;;;;;;;5095351;28;20059;-57
2023/10/24 10:32:09;;;;;;;1.95;1.05;;;;;;;;;;5095233;28;20047;-60
2023/10/24 10:34:37;;;;;;;3.95;1.17;;;;;;;;;;5095181;28;20052;-59
2023/10/24 10:37:04;;;;;;;2.85;1.00;;;;;;;;;;5094977;28;20059;-60
2023/10/24 10:39:32;;;;;;;2.97;1.02;;;;;;;;;;5094832;28;20056;-59
2023/10/24 10:41:59;;;;;;;1.25;0.80;;;;;;;;;;5094828;28;20052;-61
2023/10/24 10:44:35;;;;;;;2.10;0.90;;;;;;;;;;5094684;28;20059;-59
2023/10/24 10:47:02;;;;;;;3.13;1.15;;;;;;;;;;5094601;28;20048;-60
2023/10/24 10:49:38;;;;;;;2.15;0.88;;;;;;;;;;5094592;28;20055;-59
2023/10/24 10:52:22;;;;;;;2.53;0.90;;;;;;;;;;5060755;28;20056;-59
2023/10/24 10:54:55;;;;;;;1.52;0.85;;;;;;;;;;5094441;28;20409;-59
2023/10/24 10:57:28;;;;;;;2.50;1.10;;;;;;;;;;5095311;28;20047;-59
2023/10/24 10:59:58;;;;;;;2.15;0.95;;;;;;;;;;5094939;28;20048;-59
2023/10/24 11:02:33;;;;;;;1.65;0.85;;;;;;;;;;5094628;28;20412;-60
2023/10/24 11:05:01;;;;;;;2.75;0.90;;;;;;;;;;5095083;28;20059;-59
2023/10/24 11:07:49;;;;;;;2.25;1.05;;;;;;;;;;5094651;28;20052;-60
2023/10/24 11:10:18;;;;;;;2.10;1.00;;;;;;;;;;5094572;28;20059;-60
2023/10/24 11:12:47;;;;;;;1.50;0.70;;;;;;;;;;5095012;28;20059;-60
2023/10/24 11:15:23;;;;;;;1.98;1.00;;;;;;;;;;5094649;28;20063;-60
2023/10/24 11:17:50;;;;;;;1.73;1.08;;;;;;;;;;5094514;28;20048;-60
2023/10/24 11:20:18;;;;;;;1.80;0.98;;;;;;;;;;5093968;28;20439;-59
2023/10/24 11:22:44;;;;;;;1.70;0.88;;;;;;;;;;5094108;28;20044;-59
2023/10/24 11:25:11;;;;;;;2.20;0.90;;;;;;;;;;5094227;28;20503;-59
2023/10/24 11:27:41;;;;;;;1.88;1.00;;;;;;;;;;5094035;28;20047;-60
2023/10/24 11:30:08;;;;;;;3.55;1.00;;;;;;;;;;5094016;28;20078;-59
2023/10/24 11:32:35;;;;;;;2.22;1.02;;;;;;;;;;5094195;28;20052;-60
2023/10/24 11:35:03;;;;;;;1.60;0.82;;;;;;;;;;5093932;28;20048;-59
2023/10/24 11:37:30;;;;;;;2.22;1.10;;;;;;;;;;5093857;28;20048;-59
2023/10/24 11:39:58;;;;;;;1.35;0.80;;;;;;;;;;5093775;28;20404;-59
2023/10/24 11:42:24;;;;;;;2.35;1.25;;;;;;;;;;5093834;28;20386;-60
2023/10/24 11:44:53;;;;;;;2.83;1.05;;;;;;;;;;5093373;28;20133;-60
2023/10/24 11:47:19;;;;;;;2.05;1.00;;;;;;;;;;5093342;28;20519;-59
2023/10/24 11:49:47;;;;;;;2.15;1.00;;;;;;;;;;5093449;28;20059;-59
2023/10/24 11:52:13;;;;;;;1.88;1.05;;;;;;;;;;5093599;28;20077;-58
2023/10/24 11:54:40;;;;;;;1.85;1.25;;;;;;;;;;5093522;28;20052;-59
2023/10/24 11:57:07;;;;;;;1.80;0.93;;;;;;;;;;5093741;28;20055;-58
2023/10/24 11:59:34;;;;;;;1.55;0.93;;;;;;;;;;5093427;28;20055;-58
2023/10/24 12:02:03;;;;;;;3.38;1.10;;;;;;;;;;5093238;28;20052;-59
2023/10/24 12:04:30;;;;;;;1.92;0.77;;;;;;;;;;5093505;28;20056;-58
2023/10/24 12:07:03;;;;;;;2.55;1.00;;;;;;;;;;5093361;28;20477;-59
2023/10/24 12:09:32;;;;;;;1.88;0.90;;;;;;;;;;5093592;28;20067;-59
2023/10/24 12:12:00;;;;;;;1.55;1.00;;;;;;;;;;5093231;28;20063;-60
2023/10/24 12:14:27;;;;;;;2.75;0.90;;;;;;;;;;5093467;28;20413;-58
2023/10/24 12:16:54;;;;;;;2.63;0.82;;;;;;;;;;5093247;28;20408;-58
2023/10/24 12:19:22;;;;;;;2.45;0.80;;;;;;;;;;5093417;28;20393;-57
2023/10/24 12:21:49;;;;;;;1.60;0.77;;;;;;;;;;5093258;28;20059;-58
2023/10/24 12:24:16;;;;;;;1.63;0.70;;;;;;;;;;5092679;28;20059;-58
2023/10/24 12:26:43;;;;;;;2.58;0.90;;;;;;;;;;5092689;28;20497;-59
2023/10/24 12:29:10;;;;;;;1.90;0.85;;;;;;;;;;5092514;28;20052;-59
2023/10/24 12:31:37;;;;;;;1.63;0.90;;;;;;;;;;5092474;28;20500;-59
2023/10/24 12:34:04;;;;;;;1.85;1.08;;;;;;;;;;5092781;28;20052;-58
2023/10/24 12:36:32;;;;;;;1.85;0.88;;;;;;;;;;5092914;28;20052;-58
2023/10/24 12:38:59;;;;;;;2.30;1.20;;;;;;;;;;5092992;28;20048;-59
2023/10/24 12:41:26;;;;;;;1.50;0.80;;;;;;;;;;5092935;28;20048;-59
2023/10/24 12:43:53;;;;;;;2.97;1.02;;;;;;;;;;5092477;28;20052;-58
2023/10/24 12:46:20;;;;;;;2.33;1.00;;;;;;;;;;5092696;28;20052;-59
2023/10/24 12:48:46;;;;;;;2.22;0.93;;;;;;;;;;5092565;28;20056;-58
2023/10/24 12:51:13;;;;;;;3.95;1.10;;;;;;;;;;5092562;28;20052;-59
2023/10/24 12:53:42;;;;;;;4.20;1.33;;;;;;;;;;5092635;28;20048;-58
2023/10/24 12:56:09;;;;;;;2.30;1.08;;;;;;;;;;5092703;28;20052;-58
2023/10/24 12:58:36;;;;;;;3.58;1.02;;;;;;;;;;5092928;28;20048;-58
2023/10/24 13:01:03;;;;;;;3.05;1.00;;;;;;;;;;5092722;28;20477;-58
2023/10/24 13:03:29;;;;;;;2.25;1.10;;;;;;;;;;5092333;28;20056;-58
2023/10/24 13:05:56;;;;;;;3.95;1.30;;;;;;;;;;5092703;28;20058;-58
2023/10/24 13:08:23;;;;;;;2.88;1.02;;;;;;;;;;5092596;28;20059;-59
2023/10/24 13:10:52;;;;;;;1.70;1.10;;;;;;;;;;5112908;28;20052;-60
2023/10/24 13:13:19;;;;;;;2.30;1.23;;;;;;;;;;5112747;28;20078;-59
2023/10/24 13:15:45;;;;;;;3.15;1.33;;;;;;;;;;5112938;28;20051;-59
2023/10/24 13:18:12;;;;;;;2.42;1.50;;;;;;;;;;5112949;28;20384;-59
2023/10/24 13:20:39;;;;;;;3.88;1.95;;;;;;;;;;5112934;28;20129;-59
2023/10/24 13:23:06;;;;;;;4.57;1.77;;;;;;;;;;5113258;28;20056;-59
2023/10/24 13:25:34;;;;;;;3.08;1.70;;;;;;;;;;5113181;28;20060;-59
2023/10/24 13:28:03;;;;;;;3.00;1.52;;;;;;;;;;5113001;28;20404;-59
2023/10/24 13:30:31;;;;;;;2.53;1.70;;;;;;;;;;5112943;28;20059;-60
2023/10/24 13:32:59;;;;;;;3.77;2.10;;;;;;;;;;5112886;28;20052;-60
2023/10/24 13:35:26;;;;;;;2.72;1.60;;;;;;;;;;5112960;28;20460;-60
2023/10/24 13:37:52;;;;;;;4.40;1.95;;;;;;;;;;5112730;28;20047;-62
2023/10/24 13:40:20;;;;;;;2.83;2.08;;;;;;;;;;5112967;28;20056;-59
2023/10/24 13:42:46;;;;;;;2.92;1.90;;;;;;;;;;5112566;28;20047;-59
2023/10/24 13:45:15;;;;;;;4.03;2.05;;;;;;;;;;5112543;28;20062;-59
2023/10/24 13:47:42;;;;;;;3.00;1.85;;;;;;;;;;5103710;28;20055;-59
2023/10/24 13:50:09;;;;;;;5.57;2.60;;;;;;;;;;5092333;28;20059;-61
2023/10/24 13:52:36;;;;;;;3.63;2.58;;;;;;;;;;5091767;28;20060;-59
2023/10/24 13:55:04;;;;;;;5.53;2.88;;;;;;;;;;5092366;28;20052;-59
2023/10/24 13:57:31;;;;;;;4.28;2.30;;;;;;;;;;5091963;28;20063;-60
2023/10/24 13:59:58;;;;;;;5.88;3.63;;;;;;;;;;5092649;28;20078;-60
2023/10/24 14:02:26;;;;;;;5.43;2.50;;;;;;;;;;5091765;28;20074;-59
2023/10/24 14:04:53;;;;;;;4.05;2.65;;;;;;;;;;5092118;28;20059;-59
2023/10/24 14:07:20;;;;;;;3.17;2.47;;;;;;;;;;5092205;28;20056;-59
2023/10/24 14:09:46;;;;;;;4.43;2.08;;;;;;;;;;5091612;28;20059;-59
2023/10/24 14:12:13;;;;;;;2.95;2.13;;;;;;;;;;5091907;28;20052;-60
2023/10/24 14:14:42;;;;;;;2.58;1.52;;;;;;;;;;5091845;28;20139;-60
2023/10/24 14:17:08;;;;;;;2.72;1.80;;;;;;;;;;5091875;28;20063;-60
2023/10/24 14:19:37;;;;;;;2.85;1.80;;;;;;;;;;5091748;28;20048;-60
2023/10/24 14:22:04;;;;;;;3.28;2.10;;;;;;;;;;5091970;28;20052;-60
2023/10/24 14:24:31;;;;;;;2.78;1.90;;;;;;;;;;5091731;28;20417;-59
2023/10/24 14:26:58;;;;;;;3.40;1.85;;;;;;;;;;5094334;28;20052;-59
2023/10/24 14:29:24;;;;;;;4.63;1.88;;;;;;;;;;5095056;28;20051;-59
2023/10/24 14:31:51;;;;;;;4.50;2.22;;;;;;;;;;5094831;28;20048;-59
2023/10/24 14:34:18;;;;;;;3.40;2.60;;;;;;;;;;5095024;28;20052;-58
2023/10/24 14:36:47;;;;;;;3.42;3.13;;;;;;;;;;5094972;28;20059;-59
2023/10/24 14:39:14;;;;;;;2.73;2.53;;;;;;;;;;5095579;28;20469;-59
2023/10/24 14:41:41;;;;;;;3.90;2.38;;;;;;;;;;5094763;28;20056;-59
2023/10/24 14:44:08;;;;;;;2.80;2.10;;;;;;;;;;5094352;28;20139;-59
2023/10/24 14:46:35;;;;;;;2.28;1.60;;;;;;;;;;5094585;28;20056;-60